Time;durP1;ratioP1;P1;durP2;ratioP2;P2;SDS_P1;SDS_P2;PMS_P1;PMS_P2;Temp;Humidity;BMP_temperature;BMP_pressure;BME280_temperature;BME280_humidity;BME280_pressure;Samples;Min_cycle;Max_cycle;Signal;HPM_P1;HPM_P2
2023/05/09 00:00:09;;;;;;;47.60;25.00;;;;;;;;;;6213354;23;20393;-64
2023/05/09 00:02:36;;;;;;;46.28;22.10;;;;;;;;;;6214053;23;20024;-63
2023/05/09 00:05:03;;;;;;;52.38;23.60;;;;;;;;;;6214550;23;20060;-63
2023/05/09 00:07:30;;;;;;;55.13;23.92;;;;;;;;;;6213324;23;20453;-63
2023/05/09 00:09:56;;;;;;;49.88;24.65;;;;;;;;;;6214430;23;20348;-63
2023/05/09 00:12:22;;;;;;;50.45;23.38;;;;;;;;;;6214143;23;20095;-64
2023/05/09 00:14:50;;;;;;;52.35;24.75;;;;;;;;;;6213345;23;20111;-64
2023/05/09 00:17:17;;;;;;;53.10;25.25;;;;;;;;;;6213276;23;20331;-63
2023/05/09 00:19:44;;;;;;;56.47;26.75;;;;;;;;;;6187252;23;20024;-63
2023/05/09 00:22:11;;;;;;;52.35;24.77;;;;;;;;;;6187854;23;20017;-64
2023/05/09 00:24:38;;;;;;;61.10;24.80;;;;;;;;;;6214221;23;20017;-64
2023/05/09 00:27:04;;;;;;;49.13;24.77;;;;;;;;;;6163088;23;20062;-64
2023/05/09 00:29:30;;;;;;;55.67;27.25;;;;;;;;;;6212944;23;20028;-64
2023/05/09 00:31:56;;;;;;;55.03;25.23;;;;;;;;;;6213670;23;20025;-64
2023/05/09 00:34:22;;;;;;;53.65;24.90;;;;;;;;;;6212621;23;20079;-64
2023/05/09 00:36:49;;;;;;;53.80;25.00;;;;;;;;;;6213602;23;20445;-64
2023/05/09 00:39:15;;;;;;;51.75;23.85;;;;;;;;;;6213303;23;20021;-64
2023/05/09 00:41:41;;;;;;;50.85;24.73;;;;;;;;;;6214282;23;20012;-63
2023/05/09 00:44:08;;;;;;;46.15;23.40;;;;;;;;;;6213700;23;20099;-63
2023/05/09 00:46:34;;;;;;;49.35;22.98;;;;;;;;;;6213886;23;20021;-63
2023/05/09 00:49:00;;;;;;;50.38;24.33;;;;;;;;;;6214277;23;20372;-63
2023/05/09 00:51:27;;;;;;;53.38;24.63;;;;;;;;;;6213672;23;20028;-64
2023/05/09 00:53:53;;;;;;;50.83;24.50;;;;;;;;;;6213285;23;20020;-63
2023/05/09 00:56:20;;;;;;;53.50;24.70;;;;;;;;;;6213254;23;20511;-64
2023/05/09 00:58:47;;;;;;;59.38;26.35;;;;;;;;;;6212186;23;20059;-63
2023/05/09 01:01:13;;;;;;;54.10;25.50;;;;;;;;;;6213776;23;20456;-64
2023/05/09 01:03:40;;;;;;;57.17;26.35;;;;;;;;;;6213598;23;20016;-64
2023/05/09 01:06:18;;;;;;;57.60;27.42;;;;;;;;;;6213410;23;20025;-63
2023/05/09 01:08:50;;;;;;;55.80;26.38;;;;;;;;;;6186763;23;20074;-64
2023/05/09 01:11:24;;;;;;;59.20;27.77;;;;;;;;;;6213350;23;20448;-64
2023/05/09 01:14:05;;;;;;;53.92;26.70;;;;;;;;;;6213829;23;20062;-63
2023/05/09 01:16:42;;;;;;;57.80;28.67;;;;;;;;;;6215971;23;20020;-63
2023/05/09 01:19:17;;;;;;;58.30;28.42;;;;;;;;;;6215584;23;20033;-64
2023/05/09 01:21:44;;;;;;;59.42;26.25;;;;;;;;;;6216110;23;20017;-63
2023/05/09 01:24:19;;;;;;;60.10;27.45;;;;;;;;;;6214503;23;20437;-64
2023/05/09 01:26:59;;;;;;;55.75;25.50;;;;;;;;;;6215643;23;20021;-63
2023/05/09 01:29:36;;;;;;;57.20;27.17;;;;;;;;;;6214872;23;20020;-64
2023/05/09 01:32:10;;;;;;;56.47;28.00;;;;;;;;;;6215796;23;20016;-63
2023/05/09 01:34:37;;;;;;;58.33;27.08;;;;;;;;;;6189123;23;20046;-64
2023/05/09 01:37:04;;;;;;;57.10;26.45;;;;;;;;;;6215747;23;20365;-63
2023/05/09 01:39:32;;;;;;;53.60;25.55;;;;;;;;;;6163620;23;20024;-64
2023/05/09 01:42:00;;;;;;;54.00;25.33;;;;;;;;;;6215333;23;20017;-63
2023/05/09 01:44:29;;;;;;;51.25;23.63;;;;;;;;;;6214937;23;20330;-65
2023/05/09 01:46:55;;;;;;;47.42;24.20;;;;;;;;;;6215192;23;20013;-63
2023/05/09 01:49:22;;;;;;;52.85;25.20;;;;;;;;;;6214362;23;20020;-64
2023/05/09 01:51:48;;;;;;;57.67;26.52;;;;;;;;;;6214670;23;20047;-63
2023/05/09 01:54:15;;;;;;;54.00;25.65;;;;;;;;;;6215816;23;20028;-64
2023/05/09 01:56:42;;;;;;;54.50;26.63;;;;;;;;;;6188598;23;20091;-63
2023/05/09 01:59:14;;;;;;;56.40;26.08;;;;;;;;;;6214139;23;20091;-64
2023/05/09 02:01:40;;;;;;;56.58;25.02;;;;;;;;;;6214875;23;20083;-64
2023/05/09 02:04:06;;;;;;;56.47;25.60;;;;;;;;;;6214111;23;20070;-63
2023/05/09 02:06:33;;;;;;;58.55;25.90;;;;;;;;;;6214787;23;20016;-64
2023/05/09 02:08:59;;;;;;;53.30;25.83;;;;;;;;;;6215610;23;20016;-63
2023/05/09 02:11:25;;;;;;;54.63;25.25;;;;;;;;;;6213511;23;20020;-63
2023/05/09 02:13:52;;;;;;;61.45;28.15;;;;;;;;;;6214839;23;20020;-63
2023/05/09 02:16:19;;;;;;;58.15;26.20;;;;;;;;;;6213629;23;20433;-64
2023/05/09 02:18:46;;;;;;;58.42;26.63;;;;;;;;;;6214600;23;20066;-63
2023/05/09 02:21:12;;;;;;;55.70;28.00;;;;;;;;;;6188937;23;20039;-63
2023/05/09 02:23:38;;;;;;;52.15;25.40;;;;;;;;;;6215654;23;20046;-63
2023/05/09 02:26:04;;;;;;;60.05;27.25;;;;;;;;;;6214555;23;20027;-63
2023/05/09 02:28:30;;;;;;;56.28;26.40;;;;;;;;;;6214568;23;20039;-63
2023/05/09 02:30:57;;;;;;;54.65;26.13;;;;;;;;;;6215155;23;20087;-63
2023/05/09 02:33:23;;;;;;;62.65;27.30;;;;;;;;;;6214120;23;20091;-64
2023/05/09 02:35:50;;;;;;;50.42;25.98;;;;;;;;;;6187895;23;20071;-63
2023/05/09 02:38:18;;;;;;;60.92;27.67;;;;;;;;;;6214611;23;20263;-63
2023/05/09 02:40:46;;;;;;;55.95;27.08;;;;;;;;;;6187199;23;20047;-63
2023/05/09 02:43:13;;;;;;;60.47;26.88;;;;;;;;;;6215155;23;20017;-63
2023/05/09 02:45:40;;;;;;;57.78;26.88;;;;;;;;;;6214635;23;20418;-64
2023/05/09 02:48:06;;;;;;;65.72;27.70;;;;;;;;;;6213925;23;20448;-63
2023/05/09 02:50:32;;;;;;;58.88;28.08;;;;;;;;;;6213774;23;20020;-64
2023/05/09 02:52:58;;;;;;;62.92;28.45;;;;;;;;;;6214202;23;20021;-63
2023/05/09 02:55:24;;;;;;;57.25;25.92;;;;;;;;;;6187733;23;20016;-63
2023/05/09 02:57:50;;;;;;;63.28;28.23;;;;;;;;;;6213469;23;20436;-63
2023/05/09 03:00:16;;;;;;;61.10;28.25;;;;;;;;;;6213172;23;20063;-63
2023/05/09 03:02:43;;;;;;;61.33;28.55;;;;;;;;;;6214542;23;20024;-63
2023/05/09 03:05:09;;;;;;;55.83;25.92;;;;;;;;;;6213918;23;20025;-63
2023/05/09 03:07:35;;;;;;;60.85;27.90;;;;;;;;;;6214676;23;20027;-64
2023/05/09 03:10:01;;;;;;;62.65;27.92;;;;;;;;;;6214090;23;20341;-63
2023/05/09 03:12:27;;;;;;;59.38;27.10;;;;;;;;;;6188173;23;20333;-63
2023/05/09 03:14:53;;;;;;;59.60;27.15;;;;;;;;;;6214605;23;20021;-63
2023/05/09 03:17:20;;;;;;;58.40;24.63;;;;;;;;;;6214723;23;20016;-63
2023/05/09 03:19:47;;;;;;;68.20;30.13;;;;;;;;;;6188513;23;20034;-63
2023/05/09 03:22:13;;;;;;;59.53;27.25;;;;;;;;;;6187742;23;20506;-64
2023/05/09 03:24:39;;;;;;;65.78;28.38;;;;;;;;;;6213558;23;20024;-63
2023/05/09 03:27:05;;;;;;;59.05;28.02;;;;;;;;;;6187579;23;20465;-63
2023/05/09 03:29:32;;;;;;;57.65;25.90;;;;;;;;;;6214428;23;20017;-63
2023/05/09 03:31:58;;;;;;;69.13;28.58;;;;;;;;;;6188148;23;20017;-63
2023/05/09 03:34:24;;;;;;;64.07;28.92;;;;;;;;;;6187448;23;20066;-63
2023/05/09 03:36:50;;;;;;;64.10;27.98;;;;;;;;;;6214796;23;20091;-63
2023/05/09 03:39:16;;;;;;;65.32;27.83;;;;;;;;;;6213486;23;20129;-64
2023/05/09 03:41:43;;;;;;;67.70;30.05;;;;;;;;;;6214045;23;20024;-63
2023/05/09 03:44:09;;;;;;;66.93;29.48;;;;;;;;;;6213874;23;20025;-63
2023/05/09 03:46:35;;;;;;;68.75;29.38;;;;;;;;;;6214155;23;20031;-63
2023/05/09 03:49:03;;;;;;;65.88;27.77;;;;;;;;;;6187745;23;20024;-63
2023/05/09 03:51:29;;;;;;;68.22;29.65;;;;;;;;;;6213702;23;20039;-63
2023/05/09 03:53:55;;;;;;;66.75;30.98;;;;;;;;;;6162951;23;20027;-63
2023/05/09 03:56:21;;;;;;;74.43;31.40;;;;;;;;;;6213964;23;20334;-63
2023/05/09 03:58:48;;;;;;;70.90;31.35;;;;;;;;;;6214276;23;20336;-63
2023/05/09 04:01:14;;;;;;;72.18;30.38;;;;;;;;;;6213726;23;20600;-64
2023/05/09 04:03:40;;;;;;;68.95;31.13;;;;;;;;;;6187708;23;20027;-64
2023/05/09 04:06:07;;;;;;;79.68;33.70;;;;;;;;;;6213310;23;20425;-63
2023/05/09 04:08:33;;;;;;;71.22;31.40;;;;;;;;;;6187059;23;20392;-63
2023/05/09 04:10:59;;;;;;;71.78;33.17;;;;;;;;;;6213606;23;20064;-63
2023/05/09 04:13:29;;;;;;;77.35;33.55;;;;;;;;;;6214153;23;20031;-63
2023/05/09 04:15:55;;;;;;;75.75;32.67;;;;;;;;;;6213225;23;20026;-64
2023/05/09 04:18:21;;;;;;;72.97;32.70;;;;;;;;;;6213479;23;20110;-63
2023/05/09 04:20:47;;;;;;;82.28;35.50;;;;;;;;;;6213348;23;20380;-63
2023/05/09 04:23:13;;;;;;;81.82;34.33;;;;;;;;;;6214103;23;20071;-64
2023/05/09 04:25:39;;;;;;;71.18;33.88;;;;;;;;;;6212797;23;20021;-63
2023/05/09 04:28:05;;;;;;;89.20;35.58;;;;;;;;;;6213884;23;20095;-63
2023/05/09 04:30:31;;;;;;;80.88;35.17;;;;;;;;;;6211667;23;20105;-63
2023/05/09 04:32:57;;;;;;;84.07;35.05;;;;;;;;;;6212699;23;20382;-63
2023/05/09 04:35:23;;;;;;;80.90;33.78;;;;;;;;;;6211694;23;20032;-63
2023/05/09 04:37:51;;;;;;;86.85;37.58;;;;;;;;;;6186529;23;20078;-63
2023/05/09 04:40:17;;;;;;;81.60;35.92;;;;;;;;;;6210766;23;20095;-63
2023/05/09 04:42:43;;;;;;;88.78;36.67;;;;;;;;;;6211843;23;20055;-63
2023/05/09 04:45:10;;;;;;;87.78;37.10;;;;;;;;;;6186637;23;20024;-64
2023/05/09 04:47:36;;;;;;;90.40;38.15;;;;;;;;;;6211070;23;20021;-64
2023/05/09 04:50:02;;;;;;;87.80;36.88;;;;;;;;;;6212895;23;20017;-63
2023/05/09 04:52:28;;;;;;;85.82;36.35;;;;;;;;;;6215710;23;20013;-63
2023/05/09 04:54:54;;;;;;;91.47;38.00;;;;;;;;;;6216132;23;20020;-63
2023/05/09 04:57:21;;;;;;;97.88;40.28;;;;;;;;;;6215625;23;20318;-63
2023/05/09 04:59:47;;;;;;;88.15;38.70;;;;;;;;;;6215953;23;20086;-62
2023/05/09 05:02:13;;;;;;;96.55;38.58;;;;;;;;;;6189290;23;20016;-64
2023/05/09 05:04:39;;;;;;;95.57;38.67;;;;;;;;;;6189615;23;20013;-62
2023/05/09 05:07:05;;;;;;;100.55;39.45;;;;;;;;;;6216246;23;20025;-62
2023/05/09 05:09:31;;;;;;;84.85;37.10;;;;;;;;;;6215184;23;20023;-62
2023/05/09 05:11:57;;;;;;;87.10;39.80;;;;;;;;;;6215352;23;20307;-62
2023/05/09 05:14:23;;;;;;;85.90;36.90;;;;;;;;;;6187823;23;20012;-62
2023/05/09 05:16:49;;;;;;;92.45;38.97;;;;;;;;;;6215567;23;20024;-62
2023/05/09 05:19:15;;;;;;;94.40;40.70;;;;;;;;;;6214419;23;20031;-63
2023/05/09 05:21:41;;;;;;;94.38;40.25;;;;;;;;;;6215250;23;20099;-62
2023/05/09 05:24:07;;;;;;;93.90;39.17;;;;;;;;;;6216259;23;20087;-62
2023/05/09 05:26:33;;;;;;;90.75;39.25;;;;;;;;;;6215871;23;20017;-62
2023/05/09 05:28:59;;;;;;;97.85;39.35;;;;;;;;;;6215822;23;20019;-62
2023/05/09 05:31:25;;;;;;;88.88;38.03;;;;;;;;;;6214142;23;20100;-62
2023/05/09 05:33:51;;;;;;;98.90;40.15;;;;;;;;;;6214798;23;20383;-62
2023/05/09 05:36:17;;;;;;;94.03;39.80;;;;;;;;;;6215086;23;20108;-63
2023/05/09 05:38:43;;;;;;;89.32;39.75;;;;;;;;;;6215799;23;20056;-63
2023/05/09 05:41:14;;;;;;;91.68;39.88;;;;;;;;;;6215556;23;20508;-63
2023/05/09 05:43:40;;;;;;;94.32;39.22;;;;;;;;;;6189354;23;20017;-63
2023/05/09 05:46:06;;;;;;;95.75;39.88;;;;;;;;;;6216101;23;20020;-63
2023/05/09 05:48:32;;;;;;;93.40;40.65;;;;;;;;;;6215130;23;20017;-63
2023/05/09 05:50:58;;;;;;;99.18;42.53;;;;;;;;;;6189582;23;20055;-63
2023/05/09 05:53:24;;;;;;;84.50;41.10;;;;;;;;;;6215874;23;20028;-63
2023/05/09 05:55:50;;;;;;;88.07;40.10;;;;;;;;;;6216080;23;20376;-63
2023/05/09 05:58:16;;;;;;;97.65;40.75;;;;;;;;;;6215598;23;20437;-63
2023/05/09 06:00:42;;;;;;;99.43;40.13;;;;;;;;;;6189223;23;20127;-63
2023/05/09 06:03:12;;;;;;;97.88;40.78;;;;;;;;;;6215564;23;20032;-63
2023/05/09 06:05:41;;;;;;;90.40;40.10;;;;;;;;;;6215946;23;20124;-63
2023/05/09 06:08:07;;;;;;;99.50;43.28;;;;;;;;;;6215541;23;20020;-63
2023/05/09 06:10:33;;;;;;;101.07;42.58;;;;;;;;;;6215497;23;20112;-63
2023/05/09 06:12:59;;;;;;;99.15;41.20;;;;;;;;;;6215900;23;20100;-63
2023/05/09 06:15:25;;;;;;;98.43;42.05;;;;;;;;;;6188989;23;20392;-63
2023/05/09 06:17:51;;;;;;;98.35;41.95;;;;;;;;;;6214610;23;20039;-63
2023/05/09 06:20:17;;;;;;;92.18;41.45;;;;;;;;;;6163620;23;20389;-63
2023/05/09 06:22:43;;;;;;;108.22;45.05;;;;;;;;;;6215509;23;20016;-63
2023/05/09 06:25:09;;;;;;;96.80;41.70;;;;;;;;;;6189015;23;20096;-63
2023/05/09 06:27:35;;;;;;;89.60;41.78;;;;;;;;;;6214639;23;20465;-63
2023/05/09 06:30:01;;;;;;;92.93;41.97;;;;;;;;;;6189083;23;20022;-63
2023/05/09 06:32:27;;;;;;;100.15;42.92;;;;;;;;;;6214861;23;20052;-63
2023/05/09 06:34:53;;;;;;;88.53;38.65;;;;;;;;;;6215678;23;20020;-63
2023/05/09 06:37:19;;;;;;;96.60;42.03;;;;;;;;;;6215800;23;20016;-63
2023/05/09 06:39:46;;;;;;;94.88;43.10;;;;;;;;;;6214619;23;20028;-63
2023/05/09 06:42:12;;;;;;;88.20;40.47;;;;;;;;;;6215475;23;20012;-63
2023/05/09 06:44:38;;;;;;;81.05;38.53;;;;;;;;;;6215532;23;20021;-63
2023/05/09 06:47:04;;;;;;;84.22;36.85;;;;;;;;;;6188328;23;20327;-63
2023/05/09 06:49:30;;;;;;;78.00;36.53;;;;;;;;;;6215240;23;20043;-63
2023/05/09 06:51:56;;;;;;;81.72;38.28;;;;;;;;;;6215447;23;20025;-63
2023/05/09 06:54:22;;;;;;;88.90;37.83;;;;;;;;;;6215215;23;20500;-63
2023/05/09 06:56:48;;;;;;;74.75;35.88;;;;;;;;;;6215324;23;20013;-63
2023/05/09 06:59:15;;;;;;;80.93;38.17;;;;;;;;;;6214990;23;20051;-63
2023/05/09 07:01:41;;;;;;;78.00;37.45;;;;;;;;;;6214924;23;20017;-63
2023/05/09 07:04:07;;;;;;;75.97;36.45;;;;;;;;;;6215468;23;20025;-63
2023/05/09 07:06:33;;;;;;;68.38;33.85;;;;;;;;;;6215223;23;20024;-63
2023/05/09 07:08:59;;;;;;;62.17;30.60;;;;;;;;;;6214975;23;20095;-65
2023/05/09 07:11:25;;;;;;;58.53;31.27;;;;;;;;;;6214868;23;20020;-63
2023/05/09 07:13:51;;;;;;;54.47;29.13;;;;;;;;;;6214896;23;20027;-63
2023/05/09 07:16:17;;;;;;;50.05;24.85;;;;;;;;;;6214448;23;20087;-64
2023/05/09 07:18:43;;;;;;;50.85;25.92;;;;;;;;;;6188525;23;20134;-63
2023/05/09 07:21:09;;;;;;;50.78;24.88;;;;;;;;;;6215275;23;20012;-63
2023/05/09 07:23:35;;;;;;;48.22;26.27;;;;;;;;;;6214892;23;20345;-63
2023/05/09 07:26:01;;;;;;;46.40;24.75;;;;;;;;;;6215253;23;20019;-63
2023/05/09 07:28:28;;;;;;;43.25;24.63;;;;;;;;;;6188012;23;20063;-64
2023/05/09 07:30:57;;;;;;;43.35;23.08;;;;;;;;;;6187650;23;20017;-63
2023/05/09 07:33:23;;;;;;;40.13;22.02;;;;;;;;;;6214434;23;20345;-63
2023/05/09 07:35:49;;;;;;;45.47;25.30;;;;;;;;;;6188667;23;20013;-63
2023/05/09 07:38:15;;;;;;;41.70;22.75;;;;;;;;;;6188546;23;20031;-63
2023/05/09 07:40:41;;;;;;;40.08;20.55;;;;;;;;;;6214881;23;20012;-63
2023/05/09 07:43:07;;;;;;;38.05;21.20;;;;;;;;;;6188333;23;20450;-63
2023/05/09 07:45:33;;;;;;;37.55;19.38;;;;;;;;;;6213821;23;20454;-63
2023/05/09 07:47:59;;;;;;;39.58;22.13;;;;;;;;;;6215051;23;20035;-63
2023/05/09 07:50:25;;;;;;;32.10;17.05;;;;;;;;;;6214494;23;20059;-63
2023/05/09 07:52:51;;;;;;;33.20;17.83;;;;;;;;;;6214859;23;20016;-63
2023/05/09 07:55:17;;;;;;;32.97;18.13;;;;;;;;;;6188082;23;20095;-63
2023/05/09 07:57:43;;;;;;;34.40;18.70;;;;;;;;;;6214965;23;20020;-63
2023/05/09 08:00:10;;;;;;;30.98;16.95;;;;;;;;;;6213962;23;20329;-63
2023/05/09 08:02:36;;;;;;;35.97;19.05;;;;;;;;;;6187902;23;20319;-63
2023/05/09 08:05:02;;;;;;;30.60;16.13;;;;;;;;;;6188305;23;20023;-63
2023/05/09 08:07:28;;;;;;;26.00;14.85;;;;;;;;;;6163202;23;20017;-63
2023/05/09 08:09:54;;;;;;;29.17;16.92;;;;;;;;;;6214529;23;20472;-63
2023/05/09 08:12:20;;;;;;;27.10;14.55;;;;;;;;;;6214084;23;20025;-64
2023/05/09 08:14:46;;;;;;;26.13;15.73;;;;;;;;;;6213814;23;20023;-63
2023/05/09 08:17:12;;;;;;;27.75;15.10;;;;;;;;;;6214172;23;20021;-63
2023/05/09 08:19:38;;;;;;;33.55;15.13;;;;;;;;;;6214536;23;20027;-63
2023/05/09 08:22:04;;;;;;;30.25;15.52;;;;;;;;;;6214733;23;20013;-63
2023/05/09 08:24:31;;;;;;;29.17;15.63;;;;;;;;;;6188019;23;20322;-64
2023/05/09 08:26:57;;;;;;;27.63;15.80;;;;;;;;;;6214377;23;20095;-63
2023/05/09 08:29:23;;;;;;;26.08;14.95;;;;;;;;;;6213800;23;20067;-64
2023/05/09 08:31:50;;;;;;;28.70;15.40;;;;;;;;;;6214466;23;20092;-63
2023/05/09 08:34:16;;;;;;;27.58;16.38;;;;;;;;;;6187735;23;20051;-64
2023/05/09 08:36:44;;;;;;;32.00;16.23;;;;;;;;;;6187630;23;20043;-63
2023/05/09 08:39:10;;;;;;;35.53;18.48;;;;;;;;;;6214664;23;20024;-63
2023/05/09 08:41:37;;;;;;;28.88;18.10;;;;;;;;;;6214367;23;20025;-63
2023/05/09 08:44:03;;;;;;;29.75;16.63;;;;;;;;;;6187397;23;20085;-63
2023/05/09 08:46:36;;;;;;;31.45;17.23;;;;;;;;;;6213943;23;20056;-63
2023/05/09 08:49:05;;;;;;;24.55;15.55;;;;;;;;;;6187974;23;20091;-63
2023/05/09 08:51:32;;;;;;;28.95;16.55;;;;;;;;;;6214219;23;20024;-64
2023/05/09 08:53:58;;;;;;;29.65;16.05;;;;;;;;;;6214262;23;20021;-64
2023/05/09 08:56:25;;;;;;;27.90;15.88;;;;;;;;;;6214000;23;20056;-64
2023/05/09 08:58:51;;;;;;;33.50;17.23;;;;;;;;;;6214503;23;20031;-63
2023/05/09 09:01:17;;;;;;;32.10;16.70;;;;;;;;;;6162760;23;20472;-63
2023/05/09 09:03:46;;;;;;;30.67;17.30;;;;;;;;;;6213894;23;20466;-63
2023/05/09 09:06:12;;;;;;;30.58;18.73;;;;;;;;;;6214336;23;20028;-63
2023/05/09 09:08:39;;;;;;;25.73;16.83;;;;;;;;;;6214189;23;20021;-63
2023/05/09 09:11:06;;;;;;;27.55;16.73;;;;;;;;;;6187459;23;20020;-63
2023/05/09 09:13:37;;;;;;;31.33;17.35;;;;;;;;;;6213889;23;20024;-64
2023/05/09 09:16:04;;;;;;;28.65;16.70;;;;;;;;;;6214166;23;20021;-63
2023/05/09 09:18:32;;;;;;;30.58;16.70;;;;;;;;;;6214143;23;20020;-64
2023/05/09 09:21:01;;;;;;;29.15;16.40;;;;;;;;;;6214159;23;20449;-63
2023/05/09 09:23:28;;;;;;;28.35;17.10;;;;;;;;;;6187780;23;20031;-63
2023/05/09 09:26:02;;;;;;;26.98;17.50;;;;;;;;;;6187206;23;20023;-63
2023/05/09 09:28:28;;;;;;;27.55;16.50;;;;;;;;;;6187386;23;20080;-63
2023/05/09 09:30:54;;;;;;;36.38;17.92;;;;;;;;;;6187858;23;20016;-64
2023/05/09 09:33:21;;;;;;;28.60;16.67;;;;;;;;;;6187714;23;20469;-64
2023/05/09 09:35:48;;;;;;;28.42;17.02;;;;;;;;;;6214569;23;20027;-64
2023/05/09 09:38:14;;;;;;;24.10;16.63;;;;;;;;;;6189539;23;20047;-64
2023/05/09 09:40:47;;;;;;;28.52;16.52;;;;;;;;;;6189442;23;20461;-64
2023/05/09 09:43:13;;;;;;;30.50;16.48;;;;;;;;;;6164707;23;20108;-63
2023/05/09 09:45:41;;;;;;;30.33;17.05;;;;;;;;;;6215503;23;20027;-63
2023/05/09 09:48:07;;;;;;;27.85;16.02;;;;;;;;;;6216075;23;20021;-63
2023/05/09 09:50:33;;;;;;;27.55;16.40;;;;;;;;;;6215456;23;20023;-64
2023/05/09 09:52:59;;;;;;;26.45;16.45;;;;;;;;;;6216191;23;20020;-64
2023/05/09 09:55:26;;;;;;;26.40;16.13;;;;;;;;;;6215552;23;20025;-64
2023/05/09 09:57:53;;;;;;;27.98;16.73;;;;;;;;;;6215251;23;20074;-63
2023/05/09 10:00:24;;;;;;;24.67;15.18;;;;;;;;;;6215534;23;20025;-64
2023/05/09 10:02:52;;;;;;;23.73;14.68;;;;;;;;;;6164602;23;20052;-63
2023/05/09 10:05:39;;;;;;;23.17;14.75;;;;;;;;;;6188855;23;20055;-64
2023/05/09 10:08:08;;;;;;;22.63;14.13;;;;;;;;;;6215500;23;20338;-64
2023/05/09 10:10:35;;;;;;;28.45;15.40;;;;;;;;;;6215238;23;20021;-63
2023/05/09 10:13:02;;;;;;;24.42;13.63;;;;;;;;;;6216008;23;20025;-63
2023/05/09 10:15:30;;;;;;;22.95;14.50;;;;;;;;;;6215459;23;20021;-64
2023/05/09 10:17:57;;;;;;;21.67;13.80;;;;;;;;;;6214955;23;20028;-64
2023/05/09 10:20:24;;;;;;;20.20;13.43;;;;;;;;;;6215585;23;20020;-64
2023/05/09 10:22:51;;;;;;;22.67;14.52;;;;;;;;;;6215376;23;20016;-64
2023/05/09 10:25:19;;;;;;;24.73;15.07;;;;;;;;;;6215171;23;20022;-64
2023/05/09 10:27:46;;;;;;;26.73;14.88;;;;;;;;;;6215465;23;20028;-64
2023/05/09 10:30:13;;;;;;;25.40;14.02;;;;;;;;;;6215663;23;20413;-64
2023/05/09 10:32:45;;;;;;;24.17;14.55;;;;;;;;;;6215598;23;20013;-64
2023/05/09 10:35:12;;;;;;;21.77;13.73;;;;;;;;;;6215425;23;20437;-64
2023/05/09 10:37:39;;;;;;;21.80;13.52;;;;;;;;;;6215362;23;20031;-63
2023/05/09 10:40:06;;;;;;;24.20;14.05;;;;;;;;;;6189169;23;20027;-64
2023/05/09 10:42:33;;;;;;;21.05;13.10;;;;;;;;;;6215153;23;20087;-64
2023/05/09 10:44:59;;;;;;;21.05;13.65;;;;;;;;;;6215643;23;20036;-64
2023/05/09 10:47:26;;;;;;;21.15;12.77;;;;;;;;;;6214134;23;20028;-64
2023/05/09 10:49:53;;;;;;;24.17;14.82;;;;;;;;;;6215554;23;20020;-63
2023/05/09 10:52:22;;;;;;;20.90;14.07;;;;;;;;;;6214655;23;20017;-64
2023/05/09 10:54:59;;;;;;;25.23;15.18;;;;;;;;;;6188977;23;20027;-64
2023/05/09 10:57:26;;;;;;;19.80;13.25;;;;;;;;;;6214762;23;20103;-64
2023/05/09 10:59:52;;;;;;;23.67;13.55;;;;;;;;;;6215477;23;20025;-64
2023/05/09 11:02:20;;;;;;;22.25;14.90;;;;;;;;;;6215289;23;20017;-64
2023/05/09 11:04:46;;;;;;;22.98;15.25;;;;;;;;;;6188987;23;20028;-64
2023/05/09 11:07:23;;;;;;;23.45;14.32;;;;;;;;;;6214605;23;20020;-63
2023/05/09 11:10:07;;;;;;;26.55;16.88;;;;;;;;;;6215484;23;20023;-64
2023/05/09 11:12:33;;;;;;;25.80;16.23;;;;;;;;;;6214485;23;20457;-64
2023/05/09 11:15:06;;;;;;;25.55;16.27;;;;;;;;;;6215183;23;20020;-64
2023/05/09 11:17:37;;;;;;;25.77;16.55;;;;;;;;;;6214709;23;20613;-64
2023/05/09 11:20:06;;;;;;;26.15;17.85;;;;;;;;;;6215424;23;20032;-64
2023/05/09 11:22:52;;;;;;;28.75;18.20;;;;;;;;;;6214753;23;20361;-64
2023/05/09 11:25:24;;;;;;;24.20;15.30;;;;;;;;;;6215015;23;20627;-63
2023/05/09 11:27:51;;;;;;;28.17;17.08;;;;;;;;;;6215194;23;20020;-63
2023/05/09 11:30:18;;;;;;;26.45;18.00;;;;;;;;;;6214795;23;20039;-63
2023/05/09 11:32:50;;;;;;;27.10;17.10;;;;;;;;;;6215096;23;20016;-63
2023/05/09 11:35:18;;;;;;;25.50;18.38;;;;;;;;;;6214825;23;20071;-64
2023/05/09 11:37:48;;;;;;;27.90;19.08;;;;;;;;;;6214189;23;20021;-63
2023/05/09 11:40:14;;;;;;;;;;;;;;;;;;6188807;23;20032;-64
2023/05/09 11:42:44;;;;;;;22.95;15.73;;;;;;;;;;6215147;23;19963;-63
2023/05/09 11:45:11;;;;;;;28.60;16.70;;;;;;;;;;6188367;23;20013;-63
2023/05/09 11:47:37;;;;;;;27.88;17.73;;;;;;;;;;6214623;23;20016;-64
2023/05/09 11:50:11;;;;;;;25.48;17.85;;;;;;;;;;6214556;23;20095;-63
2023/05/09 11:52:37;;;;;;;23.75;16.70;;;;;;;;;;6214436;23;20052;-63
2023/05/09 11:55:06;;;;;;;21.35;14.90;;;;;;;;;;6214699;23;20031;-63
2023/05/09 11:57:32;;;;;;;22.30;15.45;;;;;;;;;;6187636;23;20100;-63
2023/05/09 12:00:00;;;;;;;20.38;13.57;;;;;;;;;;6214589;23;20017;-63
2023/05/09 12:02:27;;;;;;;16.85;13.02;;;;;;;;;;6187510;23;20031;-63
2023/05/09 12:04:53;;;;;;;16.52;12.07;;;;;;;;;;6162773;23;20059;-63
2023/05/09 12:07:20;;;;;;;20.60;13.25;;;;;;;;;;6187615;23;20031;-63
2023/05/09 12:09:48;;;;;;;16.42;11.23;;;;;;;;;;6214067;23;20029;-63
2023/05/09 12:12:19;;;;;;;15.95;11.68;;;;;;;;;;6187312;23;20293;-64
2023/05/09 12:14:45;;;;;;;14.30;10.73;;;;;;;;;;6214516;23;20024;-63
2023/05/09 12:17:11;;;;;;;18.67;13.20;;;;;;;;;;6213700;23;20107;-63
2023/05/09 12:19:37;;;;;;;18.17;12.10;;;;;;;;;;6213969;23;20092;-63
2023/05/09 12:22:07;;;;;;;16.25;12.18;;;;;;;;;;6214203;23;20070;-63
2023/05/09 12:24:35;;;;;;;14.73;11.55;;;;;;;;;;6213896;23;20426;-62
2023/05/09 12:27:02;;;;;;;19.67;12.88;;;;;;;;;;6213771;23;20091;-63
2023/05/09 12:29:29;;;;;;;17.17;11.90;;;;;;;;;;6213853;23;20460;-63
2023/05/09 12:31:56;;;;;;;16.27;11.75;;;;;;;;;;6214532;23;20021;-63
2023/05/09 12:34:22;;;;;;;16.13;12.25;;;;;;;;;;6213590;23;20027;-63
2023/05/09 12:36:52;;;;;;;17.48;12.05;;;;;;;;;;6213553;23;20027;-63
2023/05/09 12:39:20;;;;;;;13.25;9.60;;;;;;;;;;6214100;23;20108;-63
2023/05/09 12:41:49;;;;;;;10.90;8.57;;;;;;;;;;6214260;23;20091;-63
2023/05/09 12:44:23;;;;;;;14.10;8.63;;;;;;;;;;6213989;23;20123;-64
2023/05/09 12:46:53;;;;;;;11.73;8.88;;;;;;;;;;6187922;23;20024;-63
2023/05/09 12:49:20;;;;;;;11.45;9.30;;;;;;;;;;6213762;23;20102;-63
2023/05/09 12:51:50;;;;;;;13.80;9.25;;;;;;;;;;6187414;23;20017;-63
2023/05/09 12:54:22;;;;;;;13.02;7.55;;;;;;;;;;6213771;23;20025;-63
2023/05/09 12:56:51;;;;;;;8.43;5.55;;;;;;;;;;6214640;23;20020;-62
2023/05/09 12:59:20;;;;;;;8.20;5.03;;;;;;;;;;6213814;23;20430;-63
2023/05/09 13:01:51;;;;;;;6.38;4.72;;;;;;;;;;6214377;23;20017;-63
2023/05/09 13:04:19;;;;;;;4.97;3.72;;;;;;;;;;6187443;23;20024;-62
2023/05/09 13:06:54;;;;;;;5.10;3.35;;;;;;;;;;6187555;23;20095;-62
2023/05/09 13:09:20;;;;;;;4.65;3.53;;;;;;;;;;6214279;23;20016;-62
2023/05/09 13:11:47;;;;;;;5.47;3.63;;;;;;;;;;6215623;23;20052;-62
2023/05/09 13:14:13;;;;;;;6.90;4.47;;;;;;;;;;6215997;23;20016;-62
2023/05/09 13:16:40;;;;;;;10.00;4.88;;;;;;;;;;6216297;23;20118;-62
2023/05/09 13:19:06;;;;;;;6.10;4.50;;;;;;;;;;6189275;23;20504;-62
2023/05/09 13:21:33;;;;;;;8.48;5.20;;;;;;;;;;6189247;23;20013;-62
2023/05/09 13:23:59;;;;;;;7.07;4.60;;;;;;;;;;6216477;23;20020;-62
2023/05/09 13:26:26;;;;;;;7.93;6.07;;;;;;;;;;6189435;23;20025;-62
2023/05/09 13:28:52;;;;;;;8.60;6.03;;;;;;;;;;6189265;23;20042;-62
2023/05/09 13:31:19;;;;;;;8.88;6.00;;;;;;;;;;6215743;23;20016;-63
2023/05/09 13:33:45;;;;;;;7.00;5.78;;;;;;;;;;6214724;23;20537;-62
2023/05/09 13:36:11;;;;;;;7.35;5.80;;;;;;;;;;6216297;23;20104;-63
2023/05/09 13:38:39;;;;;;;8.55;6.00;;;;;;;;;;6215982;23;20032;-62
2023/05/09 13:41:05;;;;;;;7.80;5.85;;;;;;;;;;6216255;23;20166;-62
2023/05/09 13:43:31;;;;;;;7.90;6.35;;;;;;;;;;6215740;23;20021;-63
2023/05/09 13:45:57;;;;;;;8.55;5.85;;;;;;;;;;6216019;23;20016;-62
2023/05/09 13:48:23;;;;;;;8.98;6.43;;;;;;;;;;6215167;23;20124;-63
2023/05/09 13:50:50;;;;;;;11.57;7.10;;;;;;;;;;6216088;23;20029;-62
2023/05/09 13:53:16;;;;;;;7.65;5.72;;;;;;;;;;6216060;23;20032;-63
2023/05/09 13:55:42;;;;;;;7.38;5.45;;;;;;;;;;6215530;23;20067;-63
2023/05/09 13:58:08;;;;;;;7.43;5.28;;;;;;;;;;6215985;23;20092;-62
2023/05/09 14:00:34;;;;;;;6.88;5.47;;;;;;;;;;6215628;23;20028;-62
2023/05/09 14:03:03;;;;;;;4.88;3.70;;;;;;;;;;6215255;23;20024;-62
2023/05/09 14:05:32;;;;;;;4.93;3.55;;;;;;;;;;6215658;23;20023;-63
2023/05/09 14:08:00;;;;;;;8.00;4.68;;;;;;;;;;6215745;23;20021;-62
2023/05/09 14:10:26;;;;;;;6.65;4.20;;;;;;;;;;6163754;23;20099;-63
2023/05/09 14:12:52;;;;;;;5.88;4.20;;;;;;;;;;6189228;23;20104;-62
2023/05/09 14:15:19;;;;;;;6.45;3.60;;;;;;;;;;6214940;23;20048;-62
2023/05/09 14:17:45;;;;;;;4.95;2.70;;;;;;;;;;6215267;23;20020;-63
2023/05/09 14:20:11;;;;;;;4.38;2.40;;;;;;;;;;6215329;23;20056;-62